Live Audio



buiten  Outside


The Shack  The Shack


Woonkamer  Woonkamer


The Shack 2  The Shack 2


Onweer radar Meer informatie blitzortung!


Regen radar Meer informatie rain snow radar


Bezoek onze andere website:

Template - Daily NOAA Satelite Images



Het weer levert geen direct gevaar op.    Er zijn geen waarschuwingen afgegeven.

METAR rapporten vliegvelden

   
EHAM - Amsterdam/Schiph, Netherlands
Afstand tot: OZO 26 km
Gewijzigd: 24-05-2018 07:25
Helder  
Helder  
   Wind: NO 22.2 km/h
Wind: NO 22.2 km/h
Temperatuur: 16°C
Dauwpunt: 10°C
Vochtigheid: 68%
Barometer: 1020 hPa
Zicht: More then 10 km
Bewolking: Helder m
EHAM 240525Z 05012KT CAVOK 16/10 Q1020 NOSIG
EHRD - Rotterdam Airpor, Netherlands
Afstand tot: Z 50 km
Gewijzigd: 24-05-2018 07:25
Gedeeltelijk bewolkt  
Gedeeltelijk bewolkt  
   Wind: ONO 14.8 km/h
Wind: ONO 14.8 km/h
Temperatuur: 16°C
Dauwpunt: 10°C
Vochtigheid: 68%
Barometer: 1020 hPa
Bewolking: Partly Cloudy
Zicht: More then 10 km
Bewolking: Gedeeltelijk bewolkt m
EHRD 240525Z AUTO 06008KT 9999 NSC 16/10 Q1020 NOSIG
EHQE - Hoorn-A Sea, Netherlands
Afstand tot: NNW 60 km
Gewijzigd: 24-05-2018 07:25
Gedeeltelijk bewolkt  
Gedeeltelijk bewolkt  
   Wind: NNO 46.3 km/h
Wind: NNO 46.3 km/h
Temperatuur: 15°C
Dauwpunt: 11°C
Vochtigheid: 77%
Barometer: 1021 hPa
Bewolking: Partly Cloudy
Zicht: More then 10 km
Bewolking: Gedeeltelijk bewolkt m
EHQE 240525Z AUTO 03025KT 9999 NSC 15/11 Q1021 W///H///
EHKD - De Kooy (navy), Netherlands
Afstand tot: NNO 61 km
Gewijzigd: 24-05-2018 07:55
Bewolking  
Bewolking  
   Wind: ONO 22.2 km/h
Wind: ONO 22.2 km/h
Temperatuur: 17°C
Dauwpunt: 11°C
Vochtigheid: 68%
Barometer: 1022 hPa
Bewolking: Overcast
Zicht: More then 10 km
Bewolking: Bewolking 9753.6 m
EHKD 240555Z AUTO 06012KT 9999 OVC320 17/11 Q1022 BLU 06012KT CAVOK
EHPG - P11-B Sea, Netherlands
Afstand tot: W 73 km
Gewijzigd: 24-05-2018 07:25
Helder  
Helder  
   Wind: NO 38.9 km/h
Wind: NO 38.9 km/h
Temperatuur: 14°C
Dauwpunt: 11°C
Vochtigheid: 82%
Barometer: 1020 hPa
Bewolking: Clear
Zicht: More then 10 km
Bewolking: Helder m
EHPG 240525Z AUTO 05021KT 9999 NCD 14/11 Q1020 W///H///
EHSC - Goeree Le Sea, Netherlands
Afstand tot: ZW 74 km
Gewijzigd: 24-05-2018 07:25
  
  
   Wind: ONO 31.5 km/h
Wind: ONO 31.5 km/h
Temperatuur: 15°C
Dauwpunt: 11°C
Vochtigheid: 77%
Barometer: 1019 hPa
Zicht: More then 10 km
EHSC 240525Z AUTO 07017KT 9999 ///////// 15/11 Q1019 W13/H10

Script ontwikkeld door  Saratoga-weather.org Aangepast voor de template door  Weerstation Leuven

U vindt ons ook hier:

Het Weer Aktueel

UK Metoffice

Weather Underground

AWEKAS

HAMweather, WeatherForYou, PWS Weather

Apparatuur in gebruik:

Weerstation
Davis VP2

Weerprogramma
Weather Display

Weercomputer
Paradigit

Webleverancier
Mijn provider

Davis VP2

Weather Display

Paradigit

Mijn provider